sensor_id;sensor_type;location;lat;lon;timestamp;temperature;humidity
16521;DHT22;8373;48.110;11.522;2022-09-09T04:03:10;18.30;80.60
16521;DHT22;8373;48.110;11.522;2022-09-09T04:05:39;18.40;80.60
16521;DHT22;8373;48.110;11.522;2022-09-09T04:08:07;18.50;80.50
16521;DHT22;8373;48.110;11.522;2022-09-09T04:10:35;18.40;79.90
16521;DHT22;8373;48.110;11.522;2022-09-09T04:13:03;18.50;80.00
16521;DHT22;8373;48.110;11.522;2022-09-09T04:15:30;18.50;79.70
16521;DHT22;8373;48.110;11.522;2022-09-09T04:17:57;18.50;79.50
16521;DHT22;8373;48.110;11.522;2022-09-09T04:20:26;18.50;79.60
16521;DHT22;8373;48.110;11.522;2022-09-09T04:22:53;18.50;79.30
16521;DHT22;8373;48.110;11.522;2022-09-09T04:25:19;18.50;79.10
16521;DHT22;8373;48.110;11.522;2022-09-09T04:27:46;18.50;79.20
16521;DHT22;8373;48.110;11.522;2022-09-09T04:30:16;18.40;80.20
16521;DHT22;8373;48.110;11.522;2022-09-09T04:32:43;18.50;79.40
16521;DHT22;8373;48.110;11.522;2022-09-09T04:35:10;18.60;79.50
16521;DHT22;8373;48.110;11.522;2022-09-09T04:37:38;18.70;79.20
16521;DHT22;8373;48.110;11.522;2022-09-09T04:40:07;18.80;78.70
16521;DHT22;8373;48.110;11.522;2022-09-09T04:42:35;18.80;78.30
16521;DHT22;8373;48.110;11.522;2022-09-09T04:45:02;18.70;78.20
16521;DHT22;8373;48.110;11.522;2022-09-09T04:47:29;18.80;78.20
16521;DHT22;8373;48.110;11.522;2022-09-09T04:49:56;18.70;78.20
16521;DHT22;8373;48.110;11.522;2022-09-09T04:52:24;18.80;78.40
16521;DHT22;8373;48.110;11.522;2022-09-09T04:54:52;18.80;78.20
16521;DHT22;8373;48.110;11.522;2022-09-09T04:57:19;18.70;78.90
16521;DHT22;8373;48.110;11.522;2022-09-09T04:59:46;18.70;78.30
16521;DHT22;8373;48.110;11.522;2022-09-09T05:02:13;18.80;78.40
16521;DHT22;8373;48.110;11.522;2022-09-09T05:04:40;18.90;78.30
16521;DHT22;8373;48.110;11.522;2022-09-09T05:07:07;18.90;78.00
16521;DHT22;8373;48.110;11.522;2022-09-09T05:09:34;18.90;77.60
16521;DHT22;8373;48.110;11.522;2022-09-09T05:12:03;18.90;77.60
16521;DHT22;8373;48.110;11.522;2022-09-09T05:14:30;18.90;77.60
16521;DHT22;8373;48.110;11.522;2022-09-09T05:16:57;18.90;77.50
16521;DHT22;8373;48.110;11.522;2022-09-09T05:19:24;18.90;77.60
16521;DHT22;8373;48.110;11.522;2022-09-09T05:21:51;18.90;77.60
16521;DHT22;8373;48.110;11.522;2022-09-09T05:24:18;18.80;77.50
16521;DHT22;8373;48.110;11.522;2022-09-09T05:26:45;18.80;77.70
16521;DHT22;8373;48.110;11.522;2022-09-09T05:29:13;18.80;78.00
16521;DHT22;8373;48.110;11.522;2022-09-09T05:31:41;18.90;77.60
16521;DHT22;8373;48.110;11.522;2022-09-09T05:34:08;18.80;77.30
16521;DHT22;8373;48.110;11.522;2022-09-09T05:36:35;18.80;77.50
16521;DHT22;8373;48.110;11.522;2022-09-09T05:39:02;18.80;77.70
16521;DHT22;8373;48.110;11.522;2022-09-09T05:41:29;18.70;77.70
16521;DHT22;8373;48.110;11.522;2022-09-09T05:43:57;18.70;77.90
16521;DHT22;8373;48.110;11.522;2022-09-09T05:46:27;18.80;77.80
16521;DHT22;8373;48.110;11.522;2022-09-09T05:48:55;18.80;77.70
16521;DHT22;8373;48.110;11.522;2022-09-09T05:51:25;18.90;77.40
16521;DHT22;8373;48.110;11.522;2022-09-09T05:53:53;18.80;77.40
16521;DHT22;8373;48.110;11.522;2022-09-09T05:56:25;18.90;77.40
16521;DHT22;8373;48.110;11.522;2022-09-09T05:58:53;18.90;77.30
16521;DHT22;8373;48.110;11.522;2022-09-09T06:01:22;18.90;77.10
16521;DHT22;8373;48.110;11.522;2022-09-09T06:03:51;18.80;77.00
16521;DHT22;8373;48.110;11.522;2022-09-09T06:06:20;18.70;77.00
16521;DHT22;8373;48.110;11.522;2022-09-09T06:08:48;18.60;77.40
16521;DHT22;8373;48.110;11.522;2022-09-09T06:11:18;18.30;78.30
16521;DHT22;8373;48.110;11.522;2022-09-09T06:13:45;18.20;79.30
16521;DHT22;8373;48.110;11.522;2022-09-09T06:16:14;18.20;79.50
16521;DHT22;8373;48.110;11.522;2022-09-09T06:18:42;18.00;79.70
16521;DHT22;8373;48.110;11.522;2022-09-09T06:21:14;17.90;80.40
16521;DHT22;8373;48.110;11.522;2022-09-09T06:23:41;17.70;81.20
16521;DHT22;8373;48.110;11.522;2022-09-09T06:26:13;17.70;81.70
16521;DHT22;8373;48.110;11.522;2022-09-09T06:28:40;17.70;82.30
16521;DHT22;8373;48.110;11.522;2022-09-09T06:31:09;17.60;82.20
16521;DHT22;8373;48.110;11.522;2022-09-09T06:33:38;17.60;82.50
16521;DHT22;8373;48.110;11.522;2022-09-09T06:36:07;17.60;82.90
16521;DHT22;8373;48.110;11.522;2022-09-09T06:38:38;17.70;82.50
16521;DHT22;8373;48.110;11.522;2022-09-09T06:41:05;17.60;82.50
16521;DHT22;8373;48.110;11.522;2022-09-09T06:43:33;17.60;82.90
16521;DHT22;8373;48.110;11.522;2022-09-09T06:46:02;17.60;83.20
16521;DHT22;8373;48.110;11.522;2022-09-09T06:48:30;17.60;83.10
16521;DHT22;8373;48.110;11.522;2022-09-09T06:51:01;17.60;83.20
16521;DHT22;8373;48.110;11.522;2022-09-09T06:53:28;17.70;83.40
16521;DHT22;8373;48.110;11.522;2022-09-09T06:55:56;17.70;83.40
16521;DHT22;8373;48.110;11.522;2022-09-09T06:58:23;17.60;83.60
16521;DHT22;8373;48.110;11.522;2022-09-09T07:00:50;17.70;83.80
16521;DHT22;8373;48.110;11.522;2022-09-09T07:03:17;17.90;84.00
16521;DHT22;8373;48.110;11.522;2022-09-09T07:05:54;18.10;83.40
16521;DHT22;8373;48.110;11.522;2022-09-09T07:08:21;18.20;82.60
16521;DHT22;8373;48.110;11.522;2022-09-09T07:10:48;18.30;82.10
16521;DHT22;8373;48.110;11.522;2022-09-09T07:13:18;18.40;82.10
16521;DHT22;8373;48.110;11.522;2022-09-09T07:15:46;18.40;81.60
16521;DHT22;8373;48.110;11.522;2022-09-09T07:18:13;18.40;81.60
16521;DHT22;8373;48.110;11.522;2022-09-09T07:20:40;18.40;81.80
16521;DHT22;8373;48.110;11.522;2022-09-09T07:23:07;18.30;81.80
16521;DHT22;8373;48.110;11.522;2022-09-09T07:25:34;18.40;82.50
16521;DHT22;8373;48.110;11.522;2022-09-09T07:28:02;18.50;82.30
16521;DHT22;8373;48.110;11.522;2022-09-09T07:30:30;18.60;82.50
16521;DHT22;8373;48.110;11.522;2022-09-09T07:32:58;18.80;82.20
16521;DHT22;8373;48.110;11.522;2022-09-09T07:35:25;18.90;81.90
16521;DHT22;8373;48.110;11.522;2022-09-09T07:37:52;19.10;81.60
16521;DHT22;8373;48.110;11.522;2022-09-09T07:40:19;19.20;81.00
16521;DHT22;8373;48.110;11.522;2022-09-09T07:42:47;19.30;80.50
16521;DHT22;8373;48.110;11.522;2022-09-09T07:45:14;19.40;80.10
16521;DHT22;8373;48.110;11.522;2022-09-09T07:47:43;19.40;79.50
16521;DHT22;8373;48.110;11.522;2022-09-09T07:50:09;19.30;79.20
16521;DHT22;8373;48.110;11.522;2022-09-09T07:52:37;19.40;79.50
16521;DHT22;8373;48.110;11.522;2022-09-09T07:55:04;19.30;79.40
16521;DHT22;8373;48.110;11.522;2022-09-09T07:57:32;19.20;79.80
16521;DHT22;8373;48.110;11.522;2022-09-09T07:59:59;19.30;80.10
16521;DHT22;8373;48.110;11.522;2022-09-09T08:02:26;19.30;79.80
16521;DHT22;8373;48.110;11.522;2022-09-09T08:04:56;19.40;80.10
16521;DHT22;8373;48.110;11.522;2022-09-09T08:07:23;19.40;79.50
16521;DHT22;8373;48.110;11.522;2022-09-09T08:09:50;19.40;79.40
16521;DHT22;8373;48.110;11.522;2022-09-09T08:12:17;19.50;80.00
16521;DHT22;8373;48.110;11.522;2022-09-09T08:14:44;19.50;79.80
16521;DHT22;8373;48.110;11.522;2022-09-09T08:17:11;19.60;79.80
16521;DHT22;8373;48.110;11.522;2022-09-09T08:19:38;19.60;79.70
16521;DHT22;8373;48.110;11.522;2022-09-09T08:22:06;19.70;79.90
16521;DHT22;8373;48.110;11.522;2022-09-09T08:24:34;19.70;79.60
16521;DHT22;8373;48.110;11.522;2022-09-09T08:27:01;19.80;79.30
16521;DHT22;8373;48.110;11.522;2022-09-09T08:29:28;19.80;78.90
16521;DHT22;8373;48.110;11.522;2022-09-09T08:31:57;19.90;78.90
16521;DHT22;8373;48.110;11.522;2022-09-09T08:34:25;19.90;78.60
16521;DHT22;8373;48.110;11.522;2022-09-09T08:36:53;19.90;78.60
16521;DHT22;8373;48.110;11.522;2022-09-09T08:39:22;19.90;78.60
16521;DHT22;8373;48.110;11.522;2022-09-09T08:44:51;20.00;79.10
16521;DHT22;8373;48.110;11.522;2022-09-09T08:47:27;20.00;78.60
16521;DHT22;8373;48.110;11.522;2022-09-09T08:50:11;19.90;78.50
16521;DHT22;8373;48.110;11.522;2022-09-09T08:52:44;19.90;78.70
16521;DHT22;8373;48.110;11.522;2022-09-09T08:55:22;19.90;79.50
16521;DHT22;8373;48.110;11.522;2022-09-09T08:57:52;19.90;80.00
16521;DHT22;8373;48.110;11.522;2022-09-09T09:00:20;20.00;81.30
16521;DHT22;8373;48.110;11.522;2022-09-09T09:02:54;20.10;81.60
16521;DHT22;8373;48.110;11.522;2022-09-09T09:05:35;20.10;81.30
16521;DHT22;8373;48.110;11.522;2022-09-09T09:08:12;20.20;81.50
16521;DHT22;8373;48.110;11.522;2022-09-09T09:10:49;20.30;82.00
16521;DHT22;8373;48.110;11.522;2022-09-09T09:13:19;20.30;82.40
16521;DHT22;8373;48.110;11.522;2022-09-09T09:15:52;20.40;82.10
16521;DHT22;8373;48.110;11.522;2022-09-09T09:18:20;20.50;81.70
16521;DHT22;8373;48.110;11.522;2022-09-09T09:20:55;20.60;81.30
16521;DHT22;8373;48.110;11.522;2022-09-09T09:23:36;20.60;81.20
16521;DHT22;8373;48.110;11.522;2022-09-09T09:26:09;20.70;81.40
16521;DHT22;8373;48.110;11.522;2022-09-09T09:28:37;20.80;80.70
16521;DHT22;8373;48.110;11.522;2022-09-09T09:31:06;20.90;80.70
16521;DHT22;8373;48.110;11.522;2022-09-09T09:33:38;21.00;79.50
16521;DHT22;8373;48.110;11.522;2022-09-09T09:36:09;21.00;79.00
16521;DHT22;8373;48.110;11.522;2022-09-09T09:38:36;21.00;78.90
16521;DHT22;8373;48.110;11.522;2022-09-09T09:41:04;20.90;77.20
16521;DHT22;8373;48.110;11.522;2022-09-09T09:43:34;20.90;76.20
16521;DHT22;8373;48.110;11.522;2022-09-09T09:46:04;20.80;76.70
16521;DHT22;8373;48.110;11.522;2022-09-09T09:48:31;20.60;76.60
16521;DHT22;8373;48.110;11.522;2022-09-09T09:51:01;20.30;76.20
16521;DHT22;8373;48.110;11.522;2022-09-09T09:53:30;20.20;77.00
16521;DHT22;8373;48.110;11.522;2022-09-09T09:55:59;20.20;77.90
16521;DHT22;8373;48.110;11.522;2022-09-09T09:58:29;20.30;78.00
16521;DHT22;8373;48.110;11.522;2022-09-09T10:01:01;20.20;78.10
16521;DHT22;8373;48.110;11.522;2022-09-09T10:03:29;19.90;77.70
16521;DHT22;8373;48.110;11.522;2022-09-09T10:05:56;19.60;78.40
16521;DHT22;8373;48.110;11.522;2022-09-09T10:08:25;19.60;79.50
16521;DHT22;8373;48.110;11.522;2022-09-09T10:11:22;19.60;79.80
16521;DHT22;8373;48.110;11.522;2022-09-09T10:13:58;19.60;79.90
16521;DHT22;8373;48.110;11.522;2022-09-09T10:16:41;19.70;79.40
16521;DHT22;8373;48.110;11.522;2022-09-09T10:19:16;19.60;79.50
16521;DHT22;8373;48.110;11.522;2022-09-09T10:22:10;19.50;80.00
16521;DHT22;8373;48.110;11.522;2022-09-09T10:25:11;19.30;80.20
16521;DHT22;8373;48.110;11.522;2022-09-09T10:27:52;19.10;81.10
16521;DHT22;8373;48.110;11.522;2022-09-09T10:30:23;19.10;82.00
16521;DHT22;8373;48.110;11.522;2022-09-09T10:32:57;19.10;81.20
16521;DHT22;8373;48.110;11.522;2022-09-09T10:35:30;19.00;80.70
16521;DHT22;8373;48.110;11.522;2022-09-09T10:38:16;19.00;81.40
16521;DHT22;8373;48.110;11.522;2022-09-09T10:41:05;19.00;80.80
16521;DHT22;8373;48.110;11.522;2022-09-09T10:44:04;18.90;80.40
16521;DHT22;8373;48.110;11.522;2022-09-09T10:46:45;18.80;81.00
16521;DHT22;8373;48.110;11.522;2022-09-09T10:49:27;18.80;81.30
16521;DHT22;8373;48.110;11.522;2022-09-09T10:52:03;18.80;81.70
16521;DHT22;8373;48.110;11.522;2022-09-09T10:54:44;19.00;81.90
16521;DHT22;8373;48.110;11.522;2022-09-09T10:57:21;19.30;81.70
16521;DHT22;8373;48.110;11.522;2022-09-09T10:59:52;19.40;80.00
16521;DHT22;8373;48.110;11.522;2022-09-09T11:02:27;19.50;78.90
16521;DHT22;8373;48.110;11.522;2022-09-09T11:05:00;19.50;77.90
16521;DHT22;8373;48.110;11.522;2022-09-09T11:07:34;19.40;78.10
16521;DHT22;8373;48.110;11.522;2022-09-09T11:10:11;19.50;77.90
16521;DHT22;8373;48.110;11.522;2022-09-09T11:12:43;19.70;78.00
16521;DHT22;8373;48.110;11.522;2022-09-09T11:15:18;19.80;77.60
16521;DHT22;8373;48.110;11.522;2022-09-09T11:17:50;20.00;77.70
16521;DHT22;8373;48.110;11.522;2022-09-09T11:20:18;20.10;76.80
16521;DHT22;8373;48.110;11.522;2022-09-09T11:22:50;20.10;76.40
16521;DHT22;8373;48.110;11.522;2022-09-09T11:25:21;20.10;76.70
16521;DHT22;8373;48.110;11.522;2022-09-09T11:28:11;20.30;76.60
16521;DHT22;8373;48.110;11.522;2022-09-09T11:30:52;20.60;76.10
16521;DHT22;8373;48.110;11.522;2022-09-09T11:33:42;21.00;75.50
16521;DHT22;8373;48.110;11.522;2022-09-09T11:36:33;21.20;74.30
16521;DHT22;8373;48.110;11.522;2022-09-09T11:39:13;21.30;73.70
16521;DHT22;8373;48.110;11.522;2022-09-09T11:41:44;21.30;73.80
16521;DHT22;8373;48.110;11.522;2022-09-09T11:44:12;21.20;72.50
16521;DHT22;8373;48.110;11.522;2022-09-09T11:46:41;21.10;72.70
16521;DHT22;8373;48.110;11.522;2022-09-09T11:49:26;21.10;71.90
16521;DHT22;8373;48.110;11.522;2022-09-09T11:51:55;20.80;71.40
16521;DHT22;8373;48.110;11.522;2022-09-09T11:54:29;20.70;71.70
16521;DHT22;8373;48.110;11.522;2022-09-09T11:56:57;20.80;71.80
16521;DHT22;8373;48.110;11.522;2022-09-09T11:59:26;20.90;70.80
16521;DHT22;8373;48.110;11.522;2022-09-09T12:01:55;21.20;71.10
16521;DHT22;8373;48.110;11.522;2022-09-09T12:04:32;21.40;70.70
16521;DHT22;8373;48.110;11.522;2022-09-09T12:07:24;21.60;69.70
16521;DHT22;8373;48.110;11.522;2022-09-09T12:09:58;21.50;69.10
16521;DHT22;8373;48.110;11.522;2022-09-09T12:12:31;21.20;69.40
16521;DHT22;8373;48.110;11.522;2022-09-09T12:15:20;21.00;69.70
16521;DHT22;8373;48.110;11.522;2022-09-09T12:17:49;20.90;70.70
16521;DHT22;8373;48.110;11.522;2022-09-09T12:20:19;20.80;71.10
16521;DHT22;8373;48.110;11.522;2022-09-09T12:22:58;21.00;71.10
16521;DHT22;8373;48.110;11.522;2022-09-09T12:25:35;21.10;70.80
16521;DHT22;8373;48.110;11.522;2022-09-09T12:28:08;21.20;70.50
16521;DHT22;8373;48.110;11.522;2022-09-09T12:30:44;21.20;70.70
16521;DHT22;8373;48.110;11.522;2022-09-09T12:33:17;21.10;70.50
16521;DHT22;8373;48.110;11.522;2022-09-09T12:35:47;21.00;70.90
16521;DHT22;8373;48.110;11.522;2022-09-09T12:38:24;21.00;70.80
16521;DHT22;8373;48.110;11.522;2022-09-09T12:40:55;21.00;71.60
16521;DHT22;8373;48.110;11.522;2022-09-09T12:43:24;21.10;71.80
16521;DHT22;8373;48.110;11.522;2022-09-09T12:45:54;21.20;71.60
16521;DHT22;8373;48.110;11.522;2022-09-09T12:48:30;21.30;71.70
16521;DHT22;8373;48.110;11.522;2022-09-09T12:50:58;21.50;72.20
16521;DHT22;8373;48.110;11.522;2022-09-09T12:53:31;21.60;70.60
16521;DHT22;8373;48.110;11.522;2022-09-09T12:56:01;21.70;70.70
16521;DHT22;8373;48.110;11.522;2022-09-09T12:58:30;21.80;70.70
16521;DHT22;8373;48.110;11.522;2022-09-09T13:01:00;21.70;69.80
16521;DHT22;8373;48.110;11.522;2022-09-09T13:03:30;21.40;69.90
16521;DHT22;8373;48.110;11.522;2022-09-09T13:05:58;21.30;70.50
16521;DHT22;8373;48.110;11.522;2022-09-09T13:08:38;21.20;71.20
16521;DHT22;8373;48.110;11.522;2022-09-09T13:11:08;21.20;71.60
16521;DHT22;8373;48.110;11.522;2022-09-09T13:13:37;21.20;71.60
16521;DHT22;8373;48.110;11.522;2022-09-09T13:16:06;21.20;71.60
16521;DHT22;8373;48.110;11.522;2022-09-09T13:18:37;21.00;71.60
16521;DHT22;8373;48.110;11.522;2022-09-09T13:21:06;20.70;72.00
16521;DHT22;8373;48.110;11.522;2022-09-09T13:23:35;20.50;72.30
16521;DHT22;8373;48.110;11.522;2022-09-09T13:26:05;20.50;73.10
16521;DHT22;8373;48.110;11.522;2022-09-09T13:28:33;20.70;73.30
16521;DHT22;8373;48.110;11.522;2022-09-09T13:31:01;20.70;71.80
16521;DHT22;8373;48.110;11.522;2022-09-09T13:33:31;20.70;70.50
16521;DHT22;8373;48.110;11.522;2022-09-09T13:36:00;20.70;71.40
16521;DHT22;8373;48.110;11.522;2022-09-09T13:38:29;20.80;72.70
16521;DHT22;8373;48.110;11.522;2022-09-09T13:40:59;20.90;72.80
16521;DHT22;8373;48.110;11.522;2022-09-09T13:43:31;20.90;72.00
16521;DHT22;8373;48.110;11.522;2022-09-09T13:46:01;20.90;71.90
16521;DHT22;8373;48.110;11.522;2022-09-09T13:48:29;20.80;70.70
16521;DHT22;8373;48.110;11.522;2022-09-09T13:51:01;20.80;71.30
16521;DHT22;8373;48.110;11.522;2022-09-09T13:53:30;20.50;70.70
16521;DHT22;8373;48.110;11.522;2022-09-09T13:55:58;20.50;71.60
16521;DHT22;8373;48.110;11.522;2022-09-09T13:58:26;20.50;71.60
16521;DHT22;8373;48.110;11.522;2022-09-09T14:00:55;20.40;72.60
16521;DHT22;8373;48.110;11.522;2022-09-09T14:03:22;20.20;72.50
16521;DHT22;8373;48.110;11.522;2022-09-09T14:05:49;20.20;73.30
16521;DHT22;8373;48.110;11.522;2022-09-09T14:08:22;20.10;73.20
16521;DHT22;8373;48.110;11.522;2022-09-09T14:10:50;20.10;73.30
16521;DHT22;8373;48.110;11.522;2022-09-09T14:13:18;20.10;73.50
16521;DHT22;8373;48.110;11.522;2022-09-09T14:15:48;20.10;73.80
16521;DHT22;8373;48.110;11.522;2022-09-09T14:18:16;20.00;74.20
16521;DHT22;8373;48.110;11.522;2022-09-09T14:20:44;20.00;74.60
16521;DHT22;8373;48.110;11.522;2022-09-09T14:23:11;20.10;74.70
16521;DHT22;8373;48.110;11.522;2022-09-09T14:25:41;20.20;74.40
16521;DHT22;8373;48.110;11.522;2022-09-09T14:28:10;19.90;74.00
16521;DHT22;8373;48.110;11.522;2022-09-09T14:30:38;19.90;74.60
16521;DHT22;8373;48.110;11.522;2022-09-09T14:33:06;19.70;74.80
16521;DHT22;8373;48.110;11.522;2022-09-09T14:35:35;19.40;75.20
16521;DHT22;8373;48.110;11.522;2022-09-09T14:38:03;19.40;76.00
16521;DHT22;8373;48.110;11.522;2022-09-09T14:40:30;19.50;75.70
16521;DHT22;8373;48.110;11.522;2022-09-09T14:42:57;19.60;75.70
16521;DHT22;8373;48.110;11.522;2022-09-09T14:45:25;19.70;74.90
16521;DHT22;8373;48.110;11.522;2022-09-09T14:47:52;19.70;74.30
16521;DHT22;8373;48.110;11.522;2022-09-09T14:50:19;19.60;74.50
16521;DHT22;8373;48.110;11.522;2022-09-09T14:52:47;19.40;74.80
16521;DHT22;8373;48.110;11.522;2022-09-09T14:55:16;19.40;75.20
16521;DHT22;8373;48.110;11.522;2022-09-09T14:57:43;19.40;75.80
16521;DHT22;8373;48.110;11.522;2022-09-09T15:00:11;19.50;75.70
16521;DHT22;8373;48.110;11.522;2022-09-09T15:02:39;19.60;75.50
16521;DHT22;8373;48.110;11.522;2022-09-09T15:05:06;19.50;74.80
16521;DHT22;8373;48.110;11.522;2022-09-09T15:07:33;19.60;74.90
16521;DHT22;8373;48.110;11.522;2022-09-09T15:10:03;19.60;74.30
16521;DHT22;8373;48.110;11.522;2022-09-09T15:12:30;19.60;74.00
16521;DHT22;8373;48.110;11.522;2022-09-09T15:14:57;19.60;74.00
16521;DHT22;8373;48.110;11.522;2022-09-09T15:17:24;19.50;73.30
16521;DHT22;8373;48.110;11.522;2022-09-09T15:19:53;19.40;72.90
16521;DHT22;8373;48.110;11.522;2022-09-09T15:22:20;19.40;73.50
16521;DHT22;8373;48.110;11.522;2022-09-09T15:24:48;19.50;73.60
16521;DHT22;8373;48.110;11.522;2022-09-09T15:27:16;19.50;73.50
16521;DHT22;8373;48.110;11.522;2022-09-09T15:29:43;19.50;73.40
16521;DHT22;8373;48.110;11.522;2022-09-09T15:32:11;19.40;74.10
16521;DHT22;8373;48.110;11.522;2022-09-09T15:34:37;19.50;74.20
16521;DHT22;8373;48.110;11.522;2022-09-09T15:37:05;19.40;73.90
16521;DHT22;8373;48.110;11.522;2022-09-09T15:39:33;19.40;73.90
16521;DHT22;8373;48.110;11.522;2022-09-09T15:42:00;19.30;74.20
16521;DHT22;8373;48.110;11.522;2022-09-09T15:44:28;19.30;74.40
16521;DHT22;8373;48.110;11.522;2022-09-09T15:46:55;19.40;74.60
16521;DHT22;8373;48.110;11.522;2022-09-09T15:49:24;19.70;74.70
16521;DHT22;8373;48.110;11.522;2022-09-09T15:51:52;19.80;74.20
16521;DHT22;8373;48.110;11.522;2022-09-09T15:54:21;19.90;74.20
16521;DHT22;8373;48.110;11.522;2022-09-09T15:56:51;20.00;72.70
16521;DHT22;8373;48.110;11.522;2022-09-09T15:59:18;19.90;71.70
16521;DHT22;8373;48.110;11.522;2022-09-09T16:01:46;20.00;71.80
16521;DHT22;8373;48.110;11.522;2022-09-09T16:04:17;20.10;71.30
16521;DHT22;8373;48.110;11.522;2022-09-09T16:06:49;20.10;70.50
16521;DHT22;8373;48.110;11.522;2022-09-09T16:09:17;19.90;69.50
16521;DHT22;8373;48.110;11.522;2022-09-09T16:11:44;19.80;69.40
16521;DHT22;8373;48.110;11.522;2022-09-09T16:14:12;19.70;69.70
16521;DHT22;8373;48.110;11.522;2022-09-09T16:16:41;19.80;70.10
16521;DHT22;8373;48.110;11.522;2022-09-09T16:19:11;19.90;69.80
16521;DHT22;8373;48.110;11.522;2022-09-09T16:21:41;20.00;69.90
16521;DHT22;8373;48.110;11.522;2022-09-09T16:24:10;20.00;69.30
16521;DHT22;8373;48.110;11.522;2022-09-09T16:26:40;19.90;69.20
16521;DHT22;8373;48.110;11.522;2022-09-09T16:29:08;19.80;69.50
16521;DHT22;8373;48.110;11.522;2022-09-09T16:31:35;19.70;70.00
16521;DHT22;8373;48.110;11.522;2022-09-09T16:34:03;19.80;70.40
16521;DHT22;8373;48.110;11.522;2022-09-09T16:36:34;19.80;69.90
16521;DHT22;8373;48.110;11.522;2022-09-09T16:39:03;19.80;69.00
16521;DHT22;8373;48.110;11.522;2022-09-09T16:41:30;19.80;69.40
16521;DHT22;8373;48.110;11.522;2022-09-09T16:43:59;19.80;68.90
16521;DHT22;8373;48.110;11.522;2022-09-09T16:46:28;19.70;68.30
16521;DHT22;8373;48.110;11.522;2022-09-09T16:48:56;19.50;69.00
16521;DHT22;8373;48.110;11.522;2022-09-09T16:51:26;19.50;69.40
16521;DHT22;8373;48.110;11.522;2022-09-09T16:53:57;19.50;69.70
16521;DHT22;8373;48.110;11.522;2022-09-09T16:56:26;19.50;69.80
16521;DHT22;8373;48.110;11.522;2022-09-09T16:58:55;19.50;69.50
16521;DHT22;8373;48.110;11.522;2022-09-09T17:01:23;19.50;70.00
16521;DHT22;8373;48.110;11.522;2022-09-09T17:03:52;19.40;70.20
16521;DHT22;8373;48.110;11.522;2022-09-09T17:06:19;19.40;70.80
16521;DHT22;8373;48.110;11.522;2022-09-09T17:08:46;19.30;71.40
16521;DHT22;8373;48.110;11.522;2022-09-09T17:11:17;19.30;72.00
16521;DHT22;8373;48.110;11.522;2022-09-09T17:13:45;19.40;72.40
16521;DHT22;8373;48.110;11.522;2022-09-09T17:16:14;19.50;72.40
16521;DHT22;8373;48.110;11.522;2022-09-09T17:18:42;19.40;72.40
16521;DHT22;8373;48.110;11.522;2022-09-09T17:21:12;19.40;72.90
16521;DHT22;8373;48.110;11.522;2022-09-09T17:23:40;19.40;73.40
16521;DHT22;8373;48.110;11.522;2022-09-09T17:26:08;19.40;73.70
16521;DHT22;8373;48.110;11.522;2022-09-09T17:28:38;19.40;73.80
16521;DHT22;8373;48.110;11.522;2022-09-09T17:31:07;19.30;74.00
16521;DHT22;8373;48.110;11.522;2022-09-09T17:33:36;19.40;74.50
16521;DHT22;8373;48.110;11.522;2022-09-09T17:36:08;19.20;74.50
16521;DHT22;8373;48.110;11.522;2022-09-09T17:38:35;19.20;75.00
16521;DHT22;8373;48.110;11.522;2022-09-09T17:41:03;19.00;75.30
16521;DHT22;8373;48.110;11.522;2022-09-09T17:43:32;19.00;75.90
16521;DHT22;8373;48.110;11.522;2022-09-09T17:46:07;19.00;76.20
16521;DHT22;8373;48.110;11.522;2022-09-09T17:48:34;18.90;76.30
16521;DHT22;8373;48.110;11.522;2022-09-09T17:51:03;19.00;76.50
16521;DHT22;8373;48.110;11.522;2022-09-09T17:53:31;19.00;76.20
16521;DHT22;8373;48.110;11.522;2022-09-09T17:56:03;19.00;76.30
16521;DHT22;8373;48.110;11.522;2022-09-09T17:58:31;19.00;76.30
16521;DHT22;8373;48.110;11.522;2022-09-09T18:01:02;19.00;76.50
16521;DHT22;8373;48.110;11.522;2022-09-09T18:03:33;19.00;76.60
16521;DHT22;8373;48.110;11.522;2022-09-09T18:06:01;19.00;76.50
16521;DHT22;8373;48.110;11.522;2022-09-09T18:08:29;19.00;76.80
16521;DHT22;8373;48.110;11.522;2022-09-09T18:10:56;18.90;77.10
16521;DHT22;8373;48.110;11.522;2022-09-09T18:13:23;18.80;77.50
16521;DHT22;8373;48.110;11.522;2022-09-09T18:15:50;18.70;78.80
16521;DHT22;8373;48.110;11.522;2022-09-09T18:18:17;18.60;78.30
16521;DHT22;8373;48.110;11.522;2022-09-09T18:20:45;18.40;78.60
16521;DHT22;8373;48.110;11.522;2022-09-09T18:23:12;18.40;78.90
16521;DHT22;8373;48.110;11.522;2022-09-09T18:25:40;18.40;78.90
16521;DHT22;8373;48.110;11.522;2022-09-09T18:28:07;18.30;79.00
16521;DHT22;8373;48.110;11.522;2022-09-09T18:30:38;18.20;79.10
16521;DHT22;8373;48.110;11.522;2022-09-09T18:33:05;18.10;79.50
16521;DHT22;8373;48.110;11.522;2022-09-09T18:35:35;18.10;79.90
16521;DHT22;8373;48.110;11.522;2022-09-09T18:38:03;18.00;79.80
16521;DHT22;8373;48.110;11.522;2022-09-09T18:40:30;17.90;80.20
16521;DHT22;8373;48.110;11.522;2022-09-09T18:42:58;17.90;80.60
16521;DHT22;8373;48.110;11.522;2022-09-09T18:45:25;18.00;80.20
16521;DHT22;8373;48.110;11.522;2022-09-09T18:47:52;18.10;79.80
16521;DHT22;8373;48.110;11.522;2022-09-09T18:50:19;18.10;79.20
16521;DHT22;8373;48.110;11.522;2022-09-09T18:52:46;18.20;79.10
16521;DHT22;8373;48.110;11.522;2022-09-09T18:55:15;18.20;78.80
16521;DHT22;8373;48.110;11.522;2022-09-09T18:57:42;18.10;78.80
16521;DHT22;8373;48.110;11.522;2022-09-09T19:00:10;18.20;78.90
16521;DHT22;8373;48.110;11.522;2022-09-09T19:02:37;18.20;78.40
16521;DHT22;8373;48.110;11.522;2022-09-09T19:05:05;18.30;78.20
16521;DHT22;8373;48.110;11.522;2022-09-09T19:07:32;18.30;77.80
16521;DHT22;8373;48.110;11.522;2022-09-09T19:09:58;18.30;77.80
16521;DHT22;8373;48.110;11.522;2022-09-09T19:12:28;18.30;77.40
16521;DHT22;8373;48.110;11.522;2022-09-09T19:14:55;18.30;77.30
16521;DHT22;8373;48.110;11.522;2022-09-09T19:17:22;18.30;77.20
16521;DHT22;8373;48.110;11.522;2022-09-09T19:19:50;18.30;77.00
16521;DHT22;8373;48.110;11.522;2022-09-09T19:22:18;18.30;77.20
16521;DHT22;8373;48.110;11.522;2022-09-09T19:24:45;18.30;77.50
16521;DHT22;8373;48.110;11.522;2022-09-09T19:27:12;18.30;77.50
16521;DHT22;8373;48.110;11.522;2022-09-09T19:29:41;18.40;77.50
16521;DHT22;8373;48.110;11.522;2022-09-09T19:32:09;18.50;76.30
16521;DHT22;8373;48.110;11.522;2022-09-09T19:34:36;18.50;75.60
16521;DHT22;8373;48.110;11.522;2022-09-09T19:37:04;18.60;74.80
16521;DHT22;8373;48.110;11.522;2022-09-09T19:39:30;18.70;74.60
16521;DHT22;8373;48.110;11.522;2022-09-09T19:41:58;18.70;74.10
16521;DHT22;8373;48.110;11.522;2022-09-09T19:44:26;18.80;73.50
16521;DHT22;8373;48.110;11.522;2022-09-09T19:46:54;18.80;74.00
16521;DHT22;8373;48.110;11.522;2022-09-09T19:49:22;18.80;72.80
16521;DHT22;8373;48.110;11.522;2022-09-09T19:51:49;18.80;72.60